createdAt,value
2022-08-21T00:01:37.482Z,547.00
2022-08-21T00:06:40.709Z,556.00
2022-08-21T00:11:35.794Z,573.00
2022-08-21T00:16:35.138Z,555.00
2022-08-21T00:21:34.482Z,560.00
2022-08-21T00:26:34.667Z,570.00
2022-08-21T00:31:32.767Z,594.00
2022-08-21T00:36:32.127Z,531.00
2022-08-21T00:41:38.205Z,525.00
2022-08-21T00:46:30.454Z,578.00
2022-08-21T00:51:29.801Z,552.00
2022-08-21T00:56:29.964Z,550.00
2022-08-21T01:01:29.182Z,550.00
2022-08-21T01:06:27.319Z,566.00
2022-08-21T01:11:27.646Z,568.00
2022-08-21T01:16:25.938Z,559.00
2022-08-21T01:21:28.680Z,574.00
2022-08-21T01:26:24.465Z,547.00
2022-08-21T01:31:25.984Z,543.00
2022-08-21T01:36:23.987Z,549.00
2022-08-21T01:41:22.283Z,562.00
2022-08-21T01:46:21.602Z,609.00
2022-08-21T01:51:20.926Z,586.00
2022-08-21T01:56:20.260Z,516.00
2022-08-21T02:01:19.462Z,527.00
2022-08-21T02:06:19.618Z,530.00
2022-08-21T02:11:18.781Z,530.00
2022-08-21T02:16:19.385Z,531.00
2022-08-21T02:21:16.118Z,533.00
2022-08-21T02:26:16.256Z,546.00
2022-08-21T02:31:15.572Z,530.00
2022-08-21T02:36:13.884Z,581.00
2022-08-21T02:41:14.159Z,539.00
2022-08-21T02:46:12.487Z,540.00
2022-08-21T02:51:11.904Z,534.00
2022-08-21T02:56:11.031Z,537.00
2022-08-21T03:01:10.380Z,551.00
2022-08-21T03:06:10.489Z,507.00
2022-08-21T03:11:10.800Z,532.00
2022-08-21T03:16:09.795Z,533.00
2022-08-21T03:21:08.328Z,535.00
2022-08-21T03:26:07.457Z,535.00
2022-08-21T03:31:07.738Z,626.00
2022-08-21T03:36:05.075Z,607.00
2022-08-21T03:41:06.204Z,645.00
2022-08-21T03:46:04.544Z,495.00
2022-08-21T03:51:04.629Z,626.00
2022-08-21T03:56:02.937Z,522.00
2022-08-21T04:01:02.336Z,525.00
2022-08-21T04:06:00.468Z,557.00
2022-08-21T04:11:00.612Z,546.00
2022-08-21T04:15:58.733Z,543.00
2022-08-21T04:20:57.174Z,549.00
2022-08-21T04:25:58.378Z,561.00
2022-08-21T04:30:57.509Z,557.00
2022-08-21T04:35:58.986Z,568.00
2022-08-21T04:40:55.072Z,556.00
2022-08-21T04:45:54.385Z,556.00
2022-08-21T04:50:54.686Z,536.00
2022-08-21T04:55:53.968Z,558.00
2022-08-21T05:00:52.278Z,545.00
2022-08-21T05:05:51.611Z,546.00
2022-08-21T05:10:51.719Z,543.00
2022-08-21T05:15:50.992Z,563.00
2022-08-21T05:20:50.285Z,560.00
2022-08-21T05:25:48.572Z,550.00
2022-08-21T05:30:46.857Z,538.00
2022-08-21T05:35:47.165Z,540.00
2022-08-21T05:40:49.594Z,540.00
2022-08-21T05:45:46.753Z,549.00
2022-08-21T05:50:45.048Z,547.00
2022-08-21T05:55:46.222Z,543.00
2022-08-21T06:00:43.685Z,537.00
2022-08-21T06:05:43.050Z,532.00
2022-08-21T06:10:42.132Z,542.00
2022-08-21T06:15:59.431Z,539.00
2022-08-21T06:20:40.643Z,529.00
2022-08-21T06:25:42.046Z,532.00
2022-08-21T06:30:40.129Z,507.00
2022-08-21T06:35:41.470Z,512.00
2022-08-21T06:40:39.046Z,524.00
2022-08-21T06:45:36.830Z,515.00
2022-08-21T06:50:36.180Z,525.00
2022-08-21T06:55:37.296Z,512.00
2022-08-21T07:00:36.606Z,511.00
2022-08-21T07:05:33.963Z,525.00
2022-08-21T07:10:33.129Z,524.00
2022-08-21T07:15:32.439Z,538.00
2022-08-21T07:20:32.929Z,536.00
2022-08-21T07:25:31.070Z,564.00
2022-08-21T07:30:32.277Z,586.00
2022-08-21T07:35:29.465Z,581.00
2022-08-21T07:40:29.609Z,538.00
2022-08-21T07:45:26.728Z,574.00
2022-08-21T07:50:27.095Z,581.00
2022-08-21T07:55:28.273Z,573.00
2022-08-21T08:00:25.407Z,563.00
2022-08-21T08:05:24.759Z,547.00
2022-08-21T08:10:23.685Z,502.00
2022-08-21T08:15:25.037Z,587.00
2022-08-21T08:20:22.159Z,500.00
2022-08-21T08:25:22.579Z,533.00
2022-08-21T08:30:21.818Z,562.00
2022-08-21T08:35:26.201Z,505.00
2022-08-21T08:40:20.380Z,509.00
2022-08-21T08:45:18.404Z,584.00
2022-08-21T08:50:18.778Z,566.00
2022-08-21T08:55:17.888Z,598.00
2022-08-21T09:00:16.198Z,505.00
2022-08-21T09:05:17.518Z,499.00
2022-08-21T09:10:14.648Z,503.00
2022-08-21T09:15:15.012Z,569.00
2022-08-21T09:20:14.139Z,504.00
2022-08-21T09:25:13.400Z,513.00
2022-08-21T09:30:11.695Z,506.00
2022-08-21T09:35:11.020Z,530.00
2022-08-21T09:40:11.377Z,513.00
2022-08-21T09:45:13.551Z,503.00
2022-08-21T09:50:08.883Z,500.00
2022-08-21T09:55:11.051Z,500.00
2022-08-21T10:00:10.331Z,520.00
2022-08-21T10:05:06.474Z,512.00
2022-08-21T10:10:05.649Z,515.00
2022-08-21T10:15:08.611Z,499.00
2022-08-21T10:20:03.976Z,498.00
2022-08-21T10:25:03.114Z,504.00
2022-08-21T10:30:02.446Z,505.00
2022-08-21T10:35:01.599Z,491.00
2022-08-21T10:40:00.797Z,495.00
2022-08-21T10:44:59.894Z,495.00
2022-08-21T10:50:00.243Z,499.00
2022-08-21T10:54:59.572Z,490.00
2022-08-21T10:59:58.886Z,497.00
2022-08-21T11:04:57.206Z,496.00
2022-08-21T11:09:56.522Z,496.00
2022-08-21T11:14:56.840Z,495.00
2022-08-21T11:19:54.933Z,506.00
2022-08-21T11:24:54.326Z,497.00
2022-08-21T11:29:53.508Z,496.00
2022-08-21T11:34:53.621Z,499.00
2022-08-21T11:39:52.018Z,503.00
2022-08-21T11:44:53.097Z,498.00
2022-08-21T11:49:51.446Z,504.00
2022-08-21T11:54:51.855Z,498.00
2022-08-21T11:59:48.810Z,501.00
2022-08-21T12:04:49.924Z,498.00
2022-08-21T12:09:47.198Z,494.00
2022-08-21T12:14:46.600Z,503.00
2022-08-21T12:19:45.737Z,504.00
2022-08-21T12:24:45.844Z,500.00
2022-08-21T12:29:45.155Z,491.00
2022-08-21T12:34:44.461Z,495.00
2022-08-21T12:39:42.847Z,492.00
2022-08-21T12:44:41.934Z,495.00
2022-08-21T12:49:41.252Z,505.00
2022-08-21T12:54:40.577Z,491.00
2022-08-21T12:59:40.742Z,488.00
2022-08-21T13:04:40.815Z,481.00
2022-08-21T13:09:39.171Z,485.00
2022-08-21T13:14:45.785Z,490.00
2022-08-21T13:19:36.550Z,496.00
2022-08-21T13:24:43.729Z,498.00
2022-08-21T13:29:35.944Z,500.00
2022-08-21T13:34:35.246Z,498.00
2022-08-21T13:39:34.376Z,501.00
2022-08-21T13:44:31.717Z,500.00
2022-08-21T13:49:32.872Z,502.00
2022-08-21T13:54:30.981Z,502.00
2022-08-21T13:59:29.298Z,491.00
2022-08-21T14:04:29.657Z,496.00
2022-08-21T14:09:28.770Z,497.00
2022-08-21T14:14:29.078Z,490.00
2022-08-21T14:19:27.452Z,485.00
2022-08-21T14:24:26.556Z,488.00
2022-08-21T14:29:26.872Z,491.00
2022-08-21T14:34:27.181Z,501.00
2022-08-21T14:39:26.313Z,506.00
2022-08-21T14:44:23.661Z,545.00
2022-08-21T14:49:23.810Z,520.00
2022-08-21T14:54:22.501Z,498.00
2022-08-21T14:59:21.314Z,504.00
2022-08-21T15:04:20.420Z,502.00
2022-08-21T15:09:19.566Z,492.00
2022-08-21T15:14:17.903Z,488.00
2022-08-21T15:19:19.036Z,504.00
2022-08-21T15:24:17.169Z,520.00
2022-08-21T15:29:22.507Z,538.00
2022-08-21T15:34:15.680Z,539.00
2022-08-21T15:39:16.867Z,534.00
2022-08-21T15:44:13.981Z,535.00
2022-08-21T15:49:13.116Z,534.00
2022-08-21T15:54:12.506Z,529.00
2022-08-21T15:59:12.642Z,530.00
2022-08-21T16:04:11.976Z,528.00
2022-08-21T16:09:10.267Z,524.00
2022-08-21T16:14:09.579Z,521.00
2022-08-21T16:19:08.885Z,521.00
2022-08-21T16:24:08.177Z,519.00
2022-08-21T16:29:08.509Z,524.00
2022-08-21T16:34:06.816Z,519.00
2022-08-21T16:39:06.128Z,518.00
2022-08-21T16:44:05.464Z,522.00
2022-08-21T16:49:06.595Z,520.00
2022-08-21T16:54:03.922Z,514.00
2022-08-21T16:59:04.245Z,511.00
2022-08-21T17:04:03.589Z,514.00
2022-08-21T17:09:02.909Z,517.00
2022-08-21T17:14:01.258Z,510.00
2022-08-21T17:19:01.376Z,510.00
2022-08-21T17:23:59.713Z,511.00
2022-08-21T17:28:58.822Z,511.00
2022-08-21T17:33:58.161Z,513.00
2022-08-21T17:38:59.469Z,513.00
2022-08-21T17:43:56.807Z,503.00
2022-08-21T17:48:55.942Z,515.00
2022-08-21T17:53:56.293Z,513.00
2022-08-21T17:58:54.420Z,515.00
2022-08-21T18:03:53.756Z,515.00
2022-08-21T18:08:54.896Z,517.00
2022-08-21T18:13:52.226Z,523.00
2022-08-21T18:18:53.568Z,525.00
2022-08-21T18:23:50.867Z,520.00
2022-08-21T18:28:50.173Z,510.00
2022-08-21T18:33:58.147Z,523.00
2022-08-21T18:38:48.692Z,526.00
2022-08-21T18:43:48.006Z,524.00
2022-08-21T18:48:47.299Z,524.00
2022-08-21T18:53:46.785Z,533.00
2022-08-21T18:58:46.110Z,533.00
2022-08-21T19:03:45.438Z,542.00
2022-08-21T19:08:44.758Z,537.00
2022-08-21T19:13:43.685Z,533.00
2022-08-21T19:18:43.013Z,538.00
2022-08-21T19:23:43.348Z,542.00
2022-08-21T19:28:44.788Z,553.00
2022-08-21T19:33:40.900Z,558.00
2022-08-21T19:38:40.197Z,564.00
2022-08-21T19:43:39.392Z,559.00
2022-08-21T19:48:40.714Z,564.00
2022-08-21T19:53:40.703Z,561.00
2022-08-21T19:58:37.239Z,565.00
2022-08-21T20:03:36.402Z,558.00
2022-08-21T20:08:36.467Z,559.00
2022-08-21T20:13:34.730Z,554.00
2022-08-21T20:18:34.077Z,559.00
2022-08-21T20:23:34.086Z,566.00
2022-08-21T20:28:32.367Z,566.00
2022-08-21T20:33:31.535Z,568.00
2022-08-21T20:38:30.661Z,575.00
2022-08-21T20:43:29.755Z,584.00
2022-08-21T20:48:30.112Z,596.00
2022-08-21T20:53:43.565Z,650.00
2022-08-21T20:58:29.678Z,648.00
2022-08-21T21:08:27.043Z,666.00
2022-08-21T21:13:25.342Z,680.00
2022-08-21T21:18:24.699Z,669.00
2022-08-21T21:23:24.926Z,686.00
2022-08-21T21:28:23.236Z,676.00
2022-08-21T21:33:23.594Z,666.00
2022-08-21T21:38:21.739Z,692.00
2022-08-21T21:43:20.882Z,689.00
2022-08-21T21:48:21.304Z,687.00
2022-08-21T21:53:19.336Z,711.00
2022-08-21T21:58:17.765Z,695.00
2022-08-21T22:03:16.880Z,692.00
2022-08-21T22:08:17.177Z,682.00
2022-08-21T22:18:16.009Z,703.00
2022-08-21T22:23:15.970Z,671.00
2022-08-21T22:28:14.288Z,684.00
2022-08-21T22:33:14.545Z,668.00
2022-08-21T22:38:13.662Z,664.00
2022-08-21T22:43:11.992Z,663.00
2022-08-21T22:48:11.255Z,661.00
2022-08-21T22:53:11.650Z,655.00
2022-08-21T22:58:10.750Z,641.00
2022-08-21T23:03:16.477Z,631.00
2022-08-21T23:08:09.835Z,637.00
2022-08-21T23:13:09.678Z,641.00
2022-08-21T23:18:06.629Z,654.00
2022-08-21T23:23:06.034Z,657.00
2022-08-21T23:28:06.149Z,654.00
2022-08-21T23:33:07.321Z,657.00
2022-08-21T23:38:09.331Z,661.00
2022-08-21T23:43:03.052Z,646.00
2022-08-21T23:48:02.120Z,638.00
2022-08-21T23:53:08.888Z,634.00
2022-08-21T23:58:00.488Z,635.00
